sensor_id;sensor_type;location;lat;lon;timestamp;temperature;humidity
8896;DHT22;4484;48.928;10.066;2024-01-07T00:01:04;2.70;99.90
8896;DHT22;4484;48.928;10.066;2024-01-07T00:03:34;2.70;99.90
8896;DHT22;4484;48.928;10.066;2024-01-07T00:06:01;2.70;99.90
8896;DHT22;4484;48.928;10.066;2024-01-07T00:08:28;2.70;99.90
8896;DHT22;4484;48.928;10.066;2024-01-07T00:10:55;2.60;99.90
8896;DHT22;4484;48.928;10.066;2024-01-07T00:13:23;2.60;99.90
8896;DHT22;4484;48.928;10.066;2024-01-07T00:15:50;2.70;99.90
8896;DHT22;4484;48.928;10.066;2024-01-07T00:18:17;2.60;99.90
8896;DHT22;4484;48.928;10.066;2024-01-07T00:20:44;2.60;99.90
8896;DHT22;4484;48.928;10.066;2024-01-07T00:23:11;2.60;99.90
8896;DHT22;4484;48.928;10.066;2024-01-07T00:25:38;2.60;99.90
8896;DHT22;4484;48.928;10.066;2024-01-07T00:28:05;2.60;99.90
8896;DHT22;4484;48.928;10.066;2024-01-07T00:30:32;2.60;99.90
8896;DHT22;4484;48.928;10.066;2024-01-07T00:32:59;2.60;99.90
8896;DHT22;4484;48.928;10.066;2024-01-07T00:35:26;2.60;99.90
8896;DHT22;4484;48.928;10.066;2024-01-07T00:37:53;2.50;99.90
8896;DHT22;4484;48.928;10.066;2024-01-07T00:40:23;2.50;99.90
8896;DHT22;4484;48.928;10.066;2024-01-07T00:42:50;2.50;99.90
8896;DHT22;4484;48.928;10.066;2024-01-07T00:45:18;2.50;99.90
8896;DHT22;4484;48.928;10.066;2024-01-07T00:47:45;2.50;99.90
8896;DHT22;4484;48.928;10.066;2024-01-07T00:50:12;2.50;99.90
8896;DHT22;4484;48.928;10.066;2024-01-07T00:52:39;2.50;99.90
8896;DHT22;4484;48.928;10.066;2024-01-07T00:55:09;2.50;99.90
8896;DHT22;4484;48.928;10.066;2024-01-07T00:57:36;2.50;99.90
8896;DHT22;4484;48.928;10.066;2024-01-07T01:00:06;2.50;99.90
8896;DHT22;4484;48.928;10.066;2024-01-07T01:02:33;2.50;99.90
8896;DHT22;4484;48.928;10.066;2024-01-07T01:05:00;2.50;99.90
8896;DHT22;4484;48.928;10.066;2024-01-07T01:07:27;2.50;99.90
8896;DHT22;4484;48.928;10.066;2024-01-07T01:09:54;2.50;99.90
8896;DHT22;4484;48.928;10.066;2024-01-07T01:12:21;2.50;99.90
8896;DHT22;4484;48.928;10.066;2024-01-07T01:14:48;2.50;99.90
8896;DHT22;4484;48.928;10.066;2024-01-07T01:17:15;2.50;99.90
8896;DHT22;4484;48.928;10.066;2024-01-07T01:19:41;2.40;99.90
8896;DHT22;4484;48.928;10.066;2024-01-07T01:22:08;2.40;99.90
8896;DHT22;4484;48.928;10.066;2024-01-07T01:24:35;2.40;99.90
8896;DHT22;4484;48.928;10.066;2024-01-07T01:27:02;2.40;99.90
8896;DHT22;4484;48.928;10.066;2024-01-07T01:29:29;2.40;99.90
8896;DHT22;4484;48.928;10.066;2024-01-07T01:31:56;2.40;99.90
8896;DHT22;4484;48.928;10.066;2024-01-07T01:34:23;2.40;99.90
8896;DHT22;4484;48.928;10.066;2024-01-07T01:36:50;2.40;99.90
8896;DHT22;4484;48.928;10.066;2024-01-07T01:39:17;2.40;99.90
8896;DHT22;4484;48.928;10.066;2024-01-07T01:41:44;2.40;99.90
8896;DHT22;4484;48.928;10.066;2024-01-07T01:44:11;2.40;99.90
8896;DHT22;4484;48.928;10.066;2024-01-07T01:46:38;2.40;99.90
8896;DHT22;4484;48.928;10.066;2024-01-07T01:49:06;2.40;99.90
8896;DHT22;4484;48.928;10.066;2024-01-07T01:51:34;2.40;99.90
8896;DHT22;4484;48.928;10.066;2024-01-07T01:54:02;2.30;99.90
8896;DHT22;4484;48.928;10.066;2024-01-07T01:56:29;2.30;99.90
8896;DHT22;4484;48.928;10.066;2024-01-07T01:58:56;2.30;99.90
8896;DHT22;4484;48.928;10.066;2024-01-07T02:01:23;2.30;99.90
8896;DHT22;4484;48.928;10.066;2024-01-07T02:03:52;2.30;99.90
8896;DHT22;4484;48.928;10.066;2024-01-07T02:06:21;2.30;99.90
8896;DHT22;4484;48.928;10.066;2024-01-07T02:08:48;2.30;99.90
8896;DHT22;4484;48.928;10.066;2024-01-07T02:11:16;2.30;99.90
8896;DHT22;4484;48.928;10.066;2024-01-07T02:13:43;2.20;99.90
8896;DHT22;4484;48.928;10.066;2024-01-07T02:16:11;2.20;99.90
8896;DHT22;4484;48.928;10.066;2024-01-07T02:18:41;2.20;99.90
8896;DHT22;4484;48.928;10.066;2024-01-07T02:21:10;2.20;99.90
8896;DHT22;4484;48.928;10.066;2024-01-07T02:23:37;2.20;99.90
8896;DHT22;4484;48.928;10.066;2024-01-07T02:26:04;2.20;99.90
8896;DHT22;4484;48.928;10.066;2024-01-07T02:28:32;2.10;99.90
8896;DHT22;4484;48.928;10.066;2024-01-07T02:31:00;2.10;99.90
8896;DHT22;4484;48.928;10.066;2024-01-07T02:33:27;2.10;99.90
8896;DHT22;4484;48.928;10.066;2024-01-07T02:35:55;2.10;99.90
8896;DHT22;4484;48.928;10.066;2024-01-07T02:38:23;2.10;99.90
8896;DHT22;4484;48.928;10.066;2024-01-07T02:40:50;2.10;99.90
8896;DHT22;4484;48.928;10.066;2024-01-07T02:43:17;2.10;99.90
8896;DHT22;4484;48.928;10.066;2024-01-07T02:45:43;2.10;99.90
8896;DHT22;4484;48.928;10.066;2024-01-07T02:48:10;2.20;99.90
8896;DHT22;4484;48.928;10.066;2024-01-07T02:50:37;2.20;99.90
8896;DHT22;4484;48.928;10.066;2024-01-07T02:53:04;2.10;99.90
8896;DHT22;4484;48.928;10.066;2024-01-07T02:55:31;2.10;99.90
8896;DHT22;4484;48.928;10.066;2024-01-07T02:57:58;2.10;99.90
8896;DHT22;4484;48.928;10.066;2024-01-07T03:00:25;2.10;99.90
8896;DHT22;4484;48.928;10.066;2024-01-07T03:02:51;2.10;99.90
8896;DHT22;4484;48.928;10.066;2024-01-07T03:05:19;2.10;99.90
8896;DHT22;4484;48.928;10.066;2024-01-07T03:07:46;2.10;99.90
8896;DHT22;4484;48.928;10.066;2024-01-07T03:10:13;2.10;99.90
8896;DHT22;4484;48.928;10.066;2024-01-07T03:12:41;2.10;99.90
8896;DHT22;4484;48.928;10.066;2024-01-07T03:15:08;2.10;99.90
8896;DHT22;4484;48.928;10.066;2024-01-07T03:17:35;2.20;99.90
8896;DHT22;4484;48.928;10.066;2024-01-07T03:20:03;2.20;99.90
8896;DHT22;4484;48.928;10.066;2024-01-07T03:22:29;2.20;99.90
8896;DHT22;4484;48.928;10.066;2024-01-07T03:24:56;2.20;99.90
8896;DHT22;4484;48.928;10.066;2024-01-07T03:27:23;2.20;99.90
8896;DHT22;4484;48.928;10.066;2024-01-07T03:29:50;2.20;99.90
8896;DHT22;4484;48.928;10.066;2024-01-07T03:32:17;2.20;99.90
8896;DHT22;4484;48.928;10.066;2024-01-07T03:34:44;2.20;99.90
8896;DHT22;4484;48.928;10.066;2024-01-07T03:37:11;2.20;99.90
8896;DHT22;4484;48.928;10.066;2024-01-07T03:39:38;2.20;99.90
8896;DHT22;4484;48.928;10.066;2024-01-07T03:42:05;2.20;99.90
8896;DHT22;4484;48.928;10.066;2024-01-07T03:44:38;2.20;99.90
8896;DHT22;4484;48.928;10.066;2024-01-07T03:47:06;2.20;99.90
8896;DHT22;4484;48.928;10.066;2024-01-07T03:49:33;2.20;99.90
8896;DHT22;4484;48.928;10.066;2024-01-07T03:52:00;2.20;99.90
8896;DHT22;4484;48.928;10.066;2024-01-07T03:54:26;2.20;99.90
8896;DHT22;4484;48.928;10.066;2024-01-07T03:56:53;2.20;99.90
8896;DHT22;4484;48.928;10.066;2024-01-07T03:59:20;2.20;99.90
8896;DHT22;4484;48.928;10.066;2024-01-07T04:01:50;2.20;99.90
8896;DHT22;4484;48.928;10.066;2024-01-07T04:04:17;2.20;99.90
8896;DHT22;4484;48.928;10.066;2024-01-07T04:06:44;2.20;99.90
8896;DHT22;4484;48.928;10.066;2024-01-07T04:09:11;2.20;99.90
8896;DHT22;4484;48.928;10.066;2024-01-07T04:11:41;2.20;99.90
8896;DHT22;4484;48.928;10.066;2024-01-07T04:14:09;2.20;99.90
8896;DHT22;4484;48.928;10.066;2024-01-07T04:16:36;2.20;99.90
8896;DHT22;4484;48.928;10.066;2024-01-07T04:19:03;2.20;99.90
8896;DHT22;4484;48.928;10.066;2024-01-07T04:21:30;2.20;99.90
8896;DHT22;4484;48.928;10.066;2024-01-07T04:23:57;2.20;99.90
8896;DHT22;4484;48.928;10.066;2024-01-07T04:26:24;2.20;99.90
8896;DHT22;4484;48.928;10.066;2024-01-07T04:28:50;2.20;99.90
8896;DHT22;4484;48.928;10.066;2024-01-07T04:31:17;2.20;99.90
8896;DHT22;4484;48.928;10.066;2024-01-07T04:33:45;2.20;99.90
8896;DHT22;4484;48.928;10.066;2024-01-07T04:36:12;2.20;99.90
8896;DHT22;4484;48.928;10.066;2024-01-07T04:38:38;2.20;99.90
8896;DHT22;4484;48.928;10.066;2024-01-07T04:41:05;2.20;99.90
8896;DHT22;4484;48.928;10.066;2024-01-07T04:43:34;2.30;99.90
8896;DHT22;4484;48.928;10.066;2024-01-07T04:46:02;2.30;99.90
8896;DHT22;4484;48.928;10.066;2024-01-07T04:48:29;2.30;99.90
8896;DHT22;4484;48.928;10.066;2024-01-07T04:50:56;2.30;99.90
8896;DHT22;4484;48.928;10.066;2024-01-07T04:53:23;2.20;99.90
8896;DHT22;4484;48.928;10.066;2024-01-07T04:55:50;2.30;99.90
8896;DHT22;4484;48.928;10.066;2024-01-07T04:58:16;2.30;99.90
8896;DHT22;4484;48.928;10.066;2024-01-07T05:00:43;2.20;99.90
8896;DHT22;4484;48.928;10.066;2024-01-07T05:03:10;2.20;99.90
8896;DHT22;4484;48.928;10.066;2024-01-07T05:05:37;2.20;99.90
8896;DHT22;4484;48.928;10.066;2024-01-07T05:08:05;2.20;99.90
8896;DHT22;4484;48.928;10.066;2024-01-07T05:10:32;2.20;99.90
8896;DHT22;4484;48.928;10.066;2024-01-07T05:12:59;2.20;99.90
8896;DHT22;4484;48.928;10.066;2024-01-07T05:15:31;2.20;99.90
8896;DHT22;4484;48.928;10.066;2024-01-07T05:17:58;2.20;99.90
8896;DHT22;4484;48.928;10.066;2024-01-07T05:20:26;2.20;99.90
8896;DHT22;4484;48.928;10.066;2024-01-07T05:22:53;2.20;99.90
8896;DHT22;4484;48.928;10.066;2024-01-07T05:25:20;2.20;99.90
8896;DHT22;4484;48.928;10.066;2024-01-07T05:27:47;2.20;99.90
8896;DHT22;4484;48.928;10.066;2024-01-07T05:30:14;2.20;99.90
8896;DHT22;4484;48.928;10.066;2024-01-07T05:32:40;2.20;99.90
8896;DHT22;4484;48.928;10.066;2024-01-07T05:35:08;2.20;99.90
8896;DHT22;4484;48.928;10.066;2024-01-07T05:37:35;2.20;99.90
8896;DHT22;4484;48.928;10.066;2024-01-07T05:40:02;2.20;99.90
8896;DHT22;4484;48.928;10.066;2024-01-07T05:42:29;2.20;99.90
8896;DHT22;4484;48.928;10.066;2024-01-07T05:44:56;2.20;99.90
8896;DHT22;4484;48.928;10.066;2024-01-07T05:47:23;2.20;99.90
8896;DHT22;4484;48.928;10.066;2024-01-07T05:49:49;2.20;99.90
8896;DHT22;4484;48.928;10.066;2024-01-07T05:52:19;2.20;99.90
8896;DHT22;4484;48.928;10.066;2024-01-07T05:54:46;2.20;99.90
8896;DHT22;4484;48.928;10.066;2024-01-07T05:57:13;2.10;99.90
8896;DHT22;4484;48.928;10.066;2024-01-07T05:59:39;2.10;99.90
8896;DHT22;4484;48.928;10.066;2024-01-07T06:02:06;2.20;99.90
8896;DHT22;4484;48.928;10.066;2024-01-07T06:04:33;2.20;99.90
8896;DHT22;4484;48.928;10.066;2024-01-07T06:07:01;2.10;99.90
8896;DHT22;4484;48.928;10.066;2024-01-07T06:09:28;2.10;99.90
8896;DHT22;4484;48.928;10.066;2024-01-07T06:11:55;2.10;99.90
8896;DHT22;4484;48.928;10.066;2024-01-07T06:14:25;2.10;99.90
8896;DHT22;4484;48.928;10.066;2024-01-07T06:16:52;2.10;99.90
8896;DHT22;4484;48.928;10.066;2024-01-07T06:19:19;2.00;99.90
8896;DHT22;4484;48.928;10.066;2024-01-07T06:21:46;2.00;99.90
8896;DHT22;4484;48.928;10.066;2024-01-07T06:24:13;2.00;99.90
8896;DHT22;4484;48.928;10.066;2024-01-07T06:26:40;1.90;99.90
8896;DHT22;4484;48.928;10.066;2024-01-07T06:29:07;1.90;99.90
8896;DHT22;4484;48.928;10.066;2024-01-07T06:31:36;1.90;99.90
8896;DHT22;4484;48.928;10.066;2024-01-07T06:34:03;1.80;99.90
8896;DHT22;4484;48.928;10.066;2024-01-07T06:36:30;1.80;99.90
8896;DHT22;4484;48.928;10.066;2024-01-07T06:38:57;1.80;99.90
8896;DHT22;4484;48.928;10.066;2024-01-07T06:41:24;1.70;99.90
8896;DHT22;4484;48.928;10.066;2024-01-07T06:43:50;1.70;99.90
8896;DHT22;4484;48.928;10.066;2024-01-07T06:46:20;1.70;99.90
8896;DHT22;4484;48.928;10.066;2024-01-07T06:48:47;1.60;99.90
8896;DHT22;4484;48.928;10.066;2024-01-07T06:51:17;1.60;99.90
8896;DHT22;4484;48.928;10.066;2024-01-07T06:53:44;1.60;99.90
8896;DHT22;4484;48.928;10.066;2024-01-07T06:56:11;1.60;99.90
8896;DHT22;4484;48.928;10.066;2024-01-07T06:58:39;1.50;99.90
8896;DHT22;4484;48.928;10.066;2024-01-07T07:01:07;1.50;99.90
8896;DHT22;4484;48.928;10.066;2024-01-07T07:03:34;1.50;99.90
8896;DHT22;4484;48.928;10.066;2024-01-07T07:06:01;1.50;99.90
8896;DHT22;4484;48.928;10.066;2024-01-07T07:08:28;1.40;99.90
8896;DHT22;4484;48.928;10.066;2024-01-07T07:10:55;1.40;99.90
8896;DHT22;4484;48.928;10.066;2024-01-07T07:13:21;1.40;99.90
8896;DHT22;4484;48.928;10.066;2024-01-07T07:15:48;1.40;99.90
8896;DHT22;4484;48.928;10.066;2024-01-07T07:18:15;1.40;99.90
8896;DHT22;4484;48.928;10.066;2024-01-07T07:20:42;1.40;99.90
8896;DHT22;4484;48.928;10.066;2024-01-07T07:23:09;1.40;99.90
8896;DHT22;4484;48.928;10.066;2024-01-07T07:25:36;1.40;99.90
8896;DHT22;4484;48.928;10.066;2024-01-07T07:28:03;1.30;99.90
8896;DHT22;4484;48.928;10.066;2024-01-07T07:30:31;1.30;99.90
8896;DHT22;4484;48.928;10.066;2024-01-07T07:32:58;1.30;99.90
8896;DHT22;4484;48.928;10.066;2024-01-07T07:35:25;1.30;99.90
8896;DHT22;4484;48.928;10.066;2024-01-07T07:37:52;1.30;99.90
8896;DHT22;4484;48.928;10.066;2024-01-07T07:40:19;1.30;99.90
8896;DHT22;4484;48.928;10.066;2024-01-07T07:42:45;1.30;99.90
8896;DHT22;4484;48.928;10.066;2024-01-07T07:45:13;1.30;99.90
8896;DHT22;4484;48.928;10.066;2024-01-07T07:47:39;1.30;99.90
8896;DHT22;4484;48.928;10.066;2024-01-07T07:50:12;1.30;99.90
8896;DHT22;4484;48.928;10.066;2024-01-07T07:52:41;1.30;99.90
8896;DHT22;4484;48.928;10.066;2024-01-07T07:55:08;1.30;99.90
8896;DHT22;4484;48.928;10.066;2024-01-07T07:57:36;1.30;99.90
8896;DHT22;4484;48.928;10.066;2024-01-07T08:00:07;1.30;99.90
8896;DHT22;4484;48.928;10.066;2024-01-07T08:02:34;1.30;99.90
8896;DHT22;4484;48.928;10.066;2024-01-07T08:05:01;1.30;99.90
8896;DHT22;4484;48.928;10.066;2024-01-07T08:07:28;1.30;99.90
8896;DHT22;4484;48.928;10.066;2024-01-07T08:09:55;1.30;99.90
8896;DHT22;4484;48.928;10.066;2024-01-07T08:12:24;1.30;99.90
8896;DHT22;4484;48.928;10.066;2024-01-07T08:14:51;1.30;99.90
8896;DHT22;4484;48.928;10.066;2024-01-07T08:17:18;1.40;99.90
8896;DHT22;4484;48.928;10.066;2024-01-07T08:19:44;1.30;99.90
8896;DHT22;4484;48.928;10.066;2024-01-07T08:22:11;1.40;99.90
8896;DHT22;4484;48.928;10.066;2024-01-07T08:24:39;1.40;99.90
8896;DHT22;4484;48.928;10.066;2024-01-07T08:27:06;1.30;99.90
8896;DHT22;4484;48.928;10.066;2024-01-07T08:29:33;1.30;99.90
8896;DHT22;4484;48.928;10.066;2024-01-07T08:32:00;1.30;99.90
8896;DHT22;4484;48.928;10.066;2024-01-07T08:34:27;1.30;99.90
8896;DHT22;4484;48.928;10.066;2024-01-07T08:36:55;1.30;99.90
8896;DHT22;4484;48.928;10.066;2024-01-07T08:39:22;1.30;99.90
8896;DHT22;4484;48.928;10.066;2024-01-07T08:41:48;1.30;99.90
8896;DHT22;4484;48.928;10.066;2024-01-07T08:44:15;1.20;99.90
8896;DHT22;4484;48.928;10.066;2024-01-07T08:46:42;1.20;99.90
8896;DHT22;4484;48.928;10.066;2024-01-07T08:49:09;1.20;99.90
8896;DHT22;4484;48.928;10.066;2024-01-07T08:51:36;1.20;99.90
8896;DHT22;4484;48.928;10.066;2024-01-07T08:54:03;1.10;99.90
8896;DHT22;4484;48.928;10.066;2024-01-07T08:56:30;1.10;99.90
8896;DHT22;4484;48.928;10.066;2024-01-07T08:58:57;1.10;99.90
8896;DHT22;4484;48.928;10.066;2024-01-07T09:01:25;1.10;99.90
8896;DHT22;4484;48.928;10.066;2024-01-07T09:03:52;1.10;99.90
8896;DHT22;4484;48.928;10.066;2024-01-07T09:06:19;1.00;99.90
8896;DHT22;4484;48.928;10.066;2024-01-07T09:08:46;1.00;99.90
8896;DHT22;4484;48.928;10.066;2024-01-07T09:11:13;1.00;99.90
8896;DHT22;4484;48.928;10.066;2024-01-07T09:13:40;0.90;99.90
8896;DHT22;4484;48.928;10.066;2024-01-07T09:16:10;0.90;99.90
8896;DHT22;4484;48.928;10.066;2024-01-07T09:18:38;0.90;99.90
8896;DHT22;4484;48.928;10.066;2024-01-07T09:21:05;0.90;99.90
8896;DHT22;4484;48.928;10.066;2024-01-07T09:23:33;0.90;99.90
8896;DHT22;4484;48.928;10.066;2024-01-07T09:26:06;0.90;99.90
8896;DHT22;4484;48.928;10.066;2024-01-07T09:28:32;0.90;99.90
8896;DHT22;4484;48.928;10.066;2024-01-07T09:31:00;1.00;99.90
8896;DHT22;4484;48.928;10.066;2024-01-07T09:33:27;0.90;99.90
8896;DHT22;4484;48.928;10.066;2024-01-07T09:35:54;0.90;99.90
8896;DHT22;4484;48.928;10.066;2024-01-07T09:38:31;0.90;99.90
8896;DHT22;4484;48.928;10.066;2024-01-07T09:40:58;0.90;99.90
8896;DHT22;4484;48.928;10.066;2024-01-07T09:43:25;0.90;99.90
8896;DHT22;4484;48.928;10.066;2024-01-07T09:45:56;0.90;99.90
8896;DHT22;4484;48.928;10.066;2024-01-07T09:48:24;0.90;99.90
8896;DHT22;4484;48.928;10.066;2024-01-07T09:50:52;0.90;99.90
8896;DHT22;4484;48.928;10.066;2024-01-07T09:53:20;0.90;99.90
8896;DHT22;4484;48.928;10.066;2024-01-07T09:56:12;0.90;99.90
8896;DHT22;4484;48.928;10.066;2024-01-07T09:58:42;0.90;99.90
8896;DHT22;4484;48.928;10.066;2024-01-07T10:01:10;0.90;99.90
8896;DHT22;4484;48.928;10.066;2024-01-07T10:03:37;0.90;99.90
8896;DHT22;4484;48.928;10.066;2024-01-07T10:06:04;1.00;99.90
8896;DHT22;4484;48.928;10.066;2024-01-07T10:08:32;0.90;99.90
8896;DHT22;4484;48.928;10.066;2024-01-07T10:10:59;1.00;99.90
8896;DHT22;4484;48.928;10.066;2024-01-07T10:13:28;0.90;99.90
8896;DHT22;4484;48.928;10.066;2024-01-07T10:15:55;0.90;99.90
8896;DHT22;4484;48.928;10.066;2024-01-07T10:18:22;0.90;99.90
8896;DHT22;4484;48.928;10.066;2024-01-07T10:20:49;0.90;99.90
8896;DHT22;4484;48.928;10.066;2024-01-07T10:23:19;0.90;99.90
8896;DHT22;4484;48.928;10.066;2024-01-07T10:25:46;0.90;99.90
8896;DHT22;4484;48.928;10.066;2024-01-07T10:28:14;0.90;99.90
8896;DHT22;4484;48.928;10.066;2024-01-07T10:30:49;0.90;99.90
8896;DHT22;4484;48.928;10.066;2024-01-07T10:33:17;0.80;99.90
8896;DHT22;4484;48.928;10.066;2024-01-07T10:35:56;0.80;99.90
8896;DHT22;4484;48.928;10.066;2024-01-07T10:38:23;0.80;99.90
8896;DHT22;4484;48.928;10.066;2024-01-07T10:40:52;0.80;99.90
8896;DHT22;4484;48.928;10.066;2024-01-07T10:43:21;0.70;99.90
8896;DHT22;4484;48.928;10.066;2024-01-07T10:45:48;0.70;99.90
8896;DHT22;4484;48.928;10.066;2024-01-07T10:48:17;0.70;99.90
8896;DHT22;4484;48.928;10.066;2024-01-07T10:50:47;0.60;99.90
8896;DHT22;4484;48.928;10.066;2024-01-07T10:53:21;0.60;99.90
8896;DHT22;4484;48.928;10.066;2024-01-07T10:55:54;0.60;99.90
8896;DHT22;4484;48.928;10.066;2024-01-07T10:58:26;0.60;99.90
8896;DHT22;4484;48.928;10.066;2024-01-07T11:00:54;0.60;99.90
8896;DHT22;4484;48.928;10.066;2024-01-07T11:03:33;0.60;99.90
8896;DHT22;4484;48.928;10.066;2024-01-07T11:09:10;0.60;99.90
8896;DHT22;4484;48.928;10.066;2024-01-07T11:11:40;0.60;99.90
8896;DHT22;4484;48.928;10.066;2024-01-07T11:14:48;0.60;99.90
8896;DHT22;4484;48.928;10.066;2024-01-07T11:20:06;0.50;99.90
8896;DHT22;4484;48.928;10.066;2024-01-07T11:22:33;0.50;99.90
8896;DHT22;4484;48.928;10.066;2024-01-07T11:25:01;0.50;99.90
8896;DHT22;4484;48.928;10.066;2024-01-07T11:27:29;0.50;99.90
8896;DHT22;4484;48.928;10.066;2024-01-07T11:30:18;0.50;99.90
8896;DHT22;4484;48.928;10.066;2024-01-07T11:32:45;0.50;99.90
8896;DHT22;4484;48.928;10.066;2024-01-07T11:35:59;0.50;99.90
8896;DHT22;4484;48.928;10.066;2024-01-07T11:38:25;0.50;99.90
8896;DHT22;4484;48.928;10.066;2024-01-07T11:40:52;0.40;99.90
8896;DHT22;4484;48.928;10.066;2024-01-07T11:43:19;0.40;99.90
8896;DHT22;4484;48.928;10.066;2024-01-07T11:45:46;0.40;99.90
8896;DHT22;4484;48.928;10.066;2024-01-07T11:48:14;0.30;99.90
8896;DHT22;4484;48.928;10.066;2024-01-07T11:50:41;0.30;99.90
8896;DHT22;4484;48.928;10.066;2024-01-07T11:53:12;0.30;99.90
8896;DHT22;4484;48.928;10.066;2024-01-07T11:55:39;0.20;99.90
8896;DHT22;4484;48.928;10.066;2024-01-07T11:58:06;0.20;99.90
8896;DHT22;4484;48.928;10.066;2024-01-07T12:00:34;0.10;99.90
8896;DHT22;4484;48.928;10.066;2024-01-07T12:03:01;0.10;99.90
8896;DHT22;4484;48.928;10.066;2024-01-07T12:05:30;0.00;99.90
8896;DHT22;4484;48.928;10.066;2024-01-07T12:07:57;0.00;99.90
8896;DHT22;4484;48.928;10.066;2024-01-07T12:10:24;0.00;99.90
8896;DHT22;4484;48.928;10.066;2024-01-07T12:12:52;0.00;99.90
8896;DHT22;4484;48.928;10.066;2024-01-07T12:15:20;0.00;99.90
8896;DHT22;4484;48.928;10.066;2024-01-07T12:17:56;0.00;99.90
8896;DHT22;4484;48.928;10.066;2024-01-07T12:20:24;-0.10;99.90
8896;DHT22;4484;48.928;10.066;2024-01-07T12:22:51;0.00;99.90
8896;DHT22;4484;48.928;10.066;2024-01-07T12:25:22;-0.10;99.90
8896;DHT22;4484;48.928;10.066;2024-01-07T12:27:52;-0.10;99.90
8896;DHT22;4484;48.928;10.066;2024-01-07T12:30:20;-0.10;99.90
8896;DHT22;4484;48.928;10.066;2024-01-07T12:32:50;-0.10;99.90
8896;DHT22;4484;48.928;10.066;2024-01-07T12:35:18;-0.20;99.90
8896;DHT22;4484;48.928;10.066;2024-01-07T12:37:47;-0.20;99.90
8896;DHT22;4484;48.928;10.066;2024-01-07T12:40:14;-0.20;99.90
8896;DHT22;4484;48.928;10.066;2024-01-07T12:42:41;-0.20;99.90
8896;DHT22;4484;48.928;10.066;2024-01-07T12:45:13;-0.20;99.90
8896;DHT22;4484;48.928;10.066;2024-01-07T12:47:42;-0.20;99.90
8896;DHT22;4484;48.928;10.066;2024-01-07T12:50:10;-0.30;99.90
8896;DHT22;4484;48.928;10.066;2024-01-07T12:52:38;-0.30;99.90
8896;DHT22;4484;48.928;10.066;2024-01-07T12:55:06;-0.30;99.90
8896;DHT22;4484;48.928;10.066;2024-01-07T12:57:34;-0.30;99.90
8896;DHT22;4484;48.928;10.066;2024-01-07T13:00:03;-0.40;99.90
8896;DHT22;4484;48.928;10.066;2024-01-07T13:02:33;-0.40;99.90
8896;DHT22;4484;48.928;10.066;2024-01-07T13:05:00;-0.30;99.90
8896;DHT22;4484;48.928;10.066;2024-01-07T13:07:27;-0.40;99.90
8896;DHT22;4484;48.928;10.066;2024-01-07T13:09:55;-0.40;99.90
8896;DHT22;4484;48.928;10.066;2024-01-07T13:12:21;-0.40;99.90
8896;DHT22;4484;48.928;10.066;2024-01-07T13:14:54;-0.40;99.90
8896;DHT22;4484;48.928;10.066;2024-01-07T13:17:21;-0.40;99.90
8896;DHT22;4484;48.928;10.066;2024-01-07T13:19:48;-0.30;99.90
8896;DHT22;4484;48.928;10.066;2024-01-07T13:22:15;-0.40;99.90
8896;DHT22;4484;48.928;10.066;2024-01-07T13:24:42;-0.40;99.90
8896;DHT22;4484;48.928;10.066;2024-01-07T13:27:09;-0.40;99.90
8896;DHT22;4484;48.928;10.066;2024-01-07T13:29:36;-0.30;99.90
8896;DHT22;4484;48.928;10.066;2024-01-07T13:32:03;-0.30;99.90
8896;DHT22;4484;48.928;10.066;2024-01-07T13:34:30;-0.30;99.90
8896;DHT22;4484;48.928;10.066;2024-01-07T13:36:57;-0.30;99.90
8896;DHT22;4484;48.928;10.066;2024-01-07T13:39:24;-0.30;99.90
8896;DHT22;4484;48.928;10.066;2024-01-07T13:41:51;-0.30;99.90
8896;DHT22;4484;48.928;10.066;2024-01-07T13:44:18;-0.30;99.90
8896;DHT22;4484;48.928;10.066;2024-01-07T13:46:45;-0.30;99.90
8896;DHT22;4484;48.928;10.066;2024-01-07T13:49:13;-0.30;99.90
8896;DHT22;4484;48.928;10.066;2024-01-07T13:51:41;-0.30;99.90
8896;DHT22;4484;48.928;10.066;2024-01-07T13:54:08;-0.20;99.90
8896;DHT22;4484;48.928;10.066;2024-01-07T13:56:43;-0.30;99.90
8896;DHT22;4484;48.928;10.066;2024-01-07T13:59:11;-0.30;99.90
8896;DHT22;4484;48.928;10.066;2024-01-07T14:01:38;-0.40;99.90
8896;DHT22;4484;48.928;10.066;2024-01-07T14:04:06;-0.40;99.90
8896;DHT22;4484;48.928;10.066;2024-01-07T14:06:33;-0.40;99.90
8896;DHT22;4484;48.928;10.066;2024-01-07T14:09:00;-0.40;99.90
8896;DHT22;4484;48.928;10.066;2024-01-07T14:11:27;-0.40;99.90
8896;DHT22;4484;48.928;10.066;2024-01-07T14:13:54;-0.40;99.90
8896;DHT22;4484;48.928;10.066;2024-01-07T14:16:21;-0.40;99.90
8896;DHT22;4484;48.928;10.066;2024-01-07T14:18:48;-0.40;99.90
8896;DHT22;4484;48.928;10.066;2024-01-07T14:21:15;-0.50;99.90
8896;DHT22;4484;48.928;10.066;2024-01-07T14:23:43;-0.50;99.90
8896;DHT22;4484;48.928;10.066;2024-01-07T14:26:09;-0.50;99.90
8896;DHT22;4484;48.928;10.066;2024-01-07T14:28:36;-0.50;99.90
8896;DHT22;4484;48.928;10.066;2024-01-07T14:31:03;-0.50;99.90
8896;DHT22;4484;48.928;10.066;2024-01-07T14:33:30;-0.60;99.90
8896;DHT22;4484;48.928;10.066;2024-01-07T14:35:58;-0.50;99.90
8896;DHT22;4484;48.928;10.066;2024-01-07T14:38:24;-0.60;99.90
8896;DHT22;4484;48.928;10.066;2024-01-07T14:40:52;-0.70;99.90
8896;DHT22;4484;48.928;10.066;2024-01-07T14:43:19;-0.70;99.90
8896;DHT22;4484;48.928;10.066;2024-01-07T14:45:46;-0.70;99.90
8896;DHT22;4484;48.928;10.066;2024-01-07T14:48:13;-0.80;99.90
8896;DHT22;4484;48.928;10.066;2024-01-07T14:50:41;-0.80;99.90
8896;DHT22;4484;48.928;10.066;2024-01-07T14:53:08;-0.80;99.90
8896;DHT22;4484;48.928;10.066;2024-01-07T14:55:35;-0.90;99.90
8896;DHT22;4484;48.928;10.066;2024-01-07T14:58:02;-0.90;99.90
8896;DHT22;4484;48.928;10.066;2024-01-07T15:00:28;-0.90;99.90
8896;DHT22;4484;48.928;10.066;2024-01-07T15:02:55;-0.90;99.90
8896;DHT22;4484;48.928;10.066;2024-01-07T15:05:22;-0.90;99.90
8896;DHT22;4484;48.928;10.066;2024-01-07T15:07:50;-1.00;99.90
8896;DHT22;4484;48.928;10.066;2024-01-07T15:10:18;-1.00;99.90
8896;DHT22;4484;48.928;10.066;2024-01-07T15:12:45;-1.10;99.90
8896;DHT22;4484;48.928;10.066;2024-01-07T15:15:23;-1.10;99.90
8896;DHT22;4484;48.928;10.066;2024-01-07T15:17:53;-1.10;99.90
8896;DHT22;4484;48.928;10.066;2024-01-07T15:20:20;-1.20;99.90
8896;DHT22;4484;48.928;10.066;2024-01-07T15:22:47;-1.20;99.90
8896;DHT22;4484;48.928;10.066;2024-01-07T15:25:19;-1.20;99.90
8896;DHT22;4484;48.928;10.066;2024-01-07T15:27:46;-1.20;99.90
8896;DHT22;4484;48.928;10.066;2024-01-07T15:30:13;-1.20;99.90
8896;DHT22;4484;48.928;10.066;2024-01-07T15:32:43;-1.20;99.90
8896;DHT22;4484;48.928;10.066;2024-01-07T15:35:10;-1.20;99.90
8896;DHT22;4484;48.928;10.066;2024-01-07T15:37:37;-1.20;99.90
8896;DHT22;4484;48.928;10.066;2024-01-07T15:40:05;-1.20;99.90
8896;DHT22;4484;48.928;10.066;2024-01-07T15:42:32;-1.20;99.90
8896;DHT22;4484;48.928;10.066;2024-01-07T15:44:58;-1.30;99.90
8896;DHT22;4484;48.928;10.066;2024-01-07T15:47:25;-1.30;99.90
8896;DHT22;4484;48.928;10.066;2024-01-07T15:49:54;-1.30;99.90
8896;DHT22;4484;48.928;10.066;2024-01-07T15:52:21;-1.40;99.90
8896;DHT22;4484;48.928;10.066;2024-01-07T15:54:48;-1.40;99.90
8896;DHT22;4484;48.928;10.066;2024-01-07T15:57:14;-1.40;99.90
8896;DHT22;4484;48.928;10.066;2024-01-07T15:59:42;-1.40;99.90
8896;DHT22;4484;48.928;10.066;2024-01-07T16:02:09;-1.40;99.90
8896;DHT22;4484;48.928;10.066;2024-01-07T16:04:36;-1.40;99.90
8896;DHT22;4484;48.928;10.066;2024-01-07T16:07:04;-1.40;99.90